sensor_id;sensor_type;location;lat;lon;timestamp;pressure;altitude;pressure_sealevel;temperature;humidity
50322;BME280;36227;53.366;-1.426;2023-06-24T00:01:11;75518.06;;;-217.30;100.00
50322;BME280;36227;53.366;-1.426;2023-06-24T00:03:36;75526.27;;;-217.30;100.00
50322;BME280;36227;53.366;-1.426;2023-06-24T00:06:01;75506.82;;;-217.30;100.00
50322;BME280;36227;53.366;-1.426;2023-06-24T00:08:27;75522.35;;;-217.30;100.00
50322;BME280;36227;53.366;-1.426;2023-06-24T00:10:52;75525.89;;;-217.30;100.00
50322;BME280;36227;53.366;-1.426;2023-06-24T00:13:17;75528.92;;;-217.07;100.00
50322;BME280;36227;53.366;-1.426;2023-06-24T00:15:42;75541.30;;;-217.07;100.00
50322;BME280;36227;53.366;-1.426;2023-06-24T00:18:07;75546.23;;;-217.30;100.00
50322;BME280;36227;53.366;-1.426;2023-06-24T00:20:32;75535.62;;;-217.78;100.00
50322;BME280;36227;53.366;-1.426;2023-06-24T00:22:57;75532.84;;;-217.30;100.00
50322;BME280;36227;53.366;-1.426;2023-06-24T00:25:22;75454.90;;;-218.02;100.00
50322;BME280;36227;53.366;-1.426;2023-06-24T00:27:47;75405.51;;;-217.78;100.00
50322;BME280;36227;53.366;-1.426;2023-06-24T00:30:13;75386.43;;;-218.26;100.00
50322;BME280;36227;53.366;-1.426;2023-06-24T00:32:38;75412.96;;;-217.78;100.00
50322;BME280;36227;53.366;-1.426;2023-06-24T00:35:03;75424.71;;;-217.78;100.00
50322;BME280;36227;53.366;-1.426;2023-06-24T00:37:28;75441.51;;;-217.54;100.00
50322;BME280;36227;53.366;-1.426;2023-06-24T00:39:53;75468.67;;;-217.54;100.00
50322;BME280;36227;53.366;-1.426;2023-06-24T00:42:18;75446.06;;;-218.26;100.00
50322;BME280;36227;53.366;-1.426;2023-06-24T00:44:43;75380.11;;;-218.26;100.00
50322;BME280;36227;53.366;-1.426;2023-06-24T00:47:08;75354.60;;;-218.50;100.00
50322;BME280;36227;53.366;-1.426;2023-06-24T00:49:33;75331.61;;;-218.50;100.00
50322;BME280;36227;53.366;-1.426;2023-06-24T00:51:58;75343.36;;;-218.02;100.00
50322;BME280;36227;53.366;-1.426;2023-06-24T00:54:23;75339.95;;;-218.26;100.00
50322;BME280;36227;53.366;-1.426;2023-06-24T00:56:49;75367.48;;;-218.02;100.00
50322;BME280;36227;53.366;-1.426;2023-06-24T00:59:15;75342.72;;;-218.26;100.00
50322;BME280;36227;53.366;-1.426;2023-06-24T01:01:39;75334.26;;;-218.26;100.00
50322;BME280;36227;53.366;-1.426;2023-06-24T01:04:06;75363.19;;;-218.26;100.00
50322;BME280;36227;53.366;-1.426;2023-06-24T01:06:29;75357.50;;;-218.74;100.00
50322;BME280;36227;53.366;-1.426;2023-06-24T01:08:54;75308.49;;;-218.74;100.00
50322;BME280;36227;53.366;-1.426;2023-06-24T01:11:19;75307.86;;;-218.26;100.00
50322;BME280;36227;53.366;-1.426;2023-06-24T01:13:44;75339.19;;;-218.26;100.00
50322;BME280;36227;53.366;-1.426;2023-06-24T01:16:14;75412.71;;;-218.02;100.00
50322;BME280;36227;53.366;-1.426;2023-06-24T01:18:40;75382.39;;;-217.78;100.00
50322;BME280;36227;53.366;-1.426;2023-06-24T01:21:05;75362.94;;;-218.02;100.00
50322;BME280;36227;53.366;-1.426;2023-06-24T01:23:40;75373.17;;;-218.02;100.00
50322;BME280;36227;53.366;-1.426;2023-06-24T01:26:04;75412.07;;;-217.30;100.00
50322;BME280;36227;53.366;-1.426;2023-06-24T01:30:54;75441.25;;;-218.02;100.00
50322;BME280;36227;53.366;-1.426;2023-06-24T01:33:08;75440.50;;;-217.78;100.00
50322;BME280;36227;53.366;-1.426;2023-06-24T01:35:33;75386.43;;;-218.26;100.00
50322;BME280;36227;53.366;-1.426;2023-06-24T01:37:59;75400.45;;;-217.78;100.00
50322;BME280;36227;53.366;-1.426;2023-06-24T01:40:26;75468.79;;;-217.54;100.00
50322;BME280;36227;53.366;-1.426;2023-06-24T01:42:47;75394.77;;;-218.02;100.00
50322;BME280;36227;53.366;-1.426;2023-06-24T01:45:13;75409.55;;;-217.78;100.00
50322;BME280;36227;53.366;-1.426;2023-06-24T01:47:36;75423.32;;;-217.78;100.00
50322;BME280;36227;53.366;-1.426;2023-06-24T01:50:03;75429.38;;;-217.78;100.00
50322;BME280;36227;53.366;-1.426;2023-06-24T01:52:28;75469.80;;;-218.26;100.00
50322;BME280;36227;53.366;-1.426;2023-06-24T01:54:52;75530.82;;;-217.30;100.00
50322;BME280;36227;53.366;-1.426;2023-06-24T01:57:17;75519.95;;;-217.30;100.00
50322;BME280;36227;53.366;-1.426;2023-06-24T01:59:42;75546.61;;;-217.30;100.00
50322;BME280;36227;53.366;-1.426;2023-06-24T02:02:06;75549.39;;;-217.30;100.00
50322;BME280;36227;53.366;-1.426;2023-06-24T02:04:31;75580.21;;;-216.83;100.00
50322;BME280;36227;53.366;-1.426;2023-06-24T02:06:57;75553.56;;;-217.07;100.00
50322;BME280;36227;53.366;-1.426;2023-06-24T02:09:22;75595.75;;;-216.83;100.00
50322;BME280;36227;53.366;-1.426;2023-06-24T02:11:47;75554.44;;;-217.30;100.00
50322;BME280;36227;53.366;-1.426;2023-06-24T02:14:12;75594.87;;;-217.78;100.00
50322;BME280;36227;53.366;-1.426;2023-06-24T02:16:37;75600.55;;;-217.30;100.00
50322;BME280;36227;53.366;-1.426;2023-06-24T02:19:02;75592.09;;;-217.30;100.00
50322;BME280;36227;53.366;-1.426;2023-06-24T02:21:26;75620.76;;;-216.83;100.00
50322;BME280;36227;53.366;-1.426;2023-06-24T02:23:52;75580.72;;;-217.30;100.00
50322;BME280;36227;53.366;-1.426;2023-06-24T02:26:17;75574.65;;;-217.07;100.00
50322;BME280;36227;53.366;-1.426;2023-06-24T02:28:44;75548.00;;;-217.30;100.00
50322;BME280;36227;53.366;-1.426;2023-06-24T02:31:09;75561.64;;;-217.30;100.00
50322;BME280;36227;53.366;-1.426;2023-06-24T02:33:32;75548.76;;;-217.30;100.00
50322;BME280;36227;53.366;-1.426;2023-06-24T02:35:57;75581.10;;;-217.30;100.00
50322;BME280;36227;53.366;-1.426;2023-06-24T02:38:22;75575.16;;;-217.78;100.00
50322;BME280;36227;53.366;-1.426;2023-06-24T02:40:47;75537.14;;;-217.78;100.00
50322;BME280;36227;53.366;-1.426;2023-06-24T02:43:13;75499.62;;;-217.78;100.00
50322;BME280;36227;53.366;-1.426;2023-06-24T02:45:38;75522.61;;;-217.30;100.00
50322;BME280;36227;53.366;-1.426;2023-06-24T02:48:04;75549.77;;;-217.30;100.00
50322;BME280;36227;53.366;-1.426;2023-06-24T02:50:28;75588.04;;;-216.83;100.00
50322;BME280;36227;53.366;-1.426;2023-06-24T02:52:53;75581.48;;;-216.83;100.00
50322;BME280;36227;53.366;-1.426;2023-06-24T02:55:18;75567.83;;;-217.07;100.00
50322;BME280;36227;53.366;-1.426;2023-06-24T02:57:43;75574.15;;;-217.07;100.00
50322;BME280;36227;53.366;-1.426;2023-06-24T03:00:09;75572.89;;;-217.54;100.00
50322;BME280;36227;53.366;-1.426;2023-06-24T03:02:33;75561.77;;;-217.78;100.00
50322;BME280;36227;53.366;-1.426;2023-06-24T03:04:58;75546.99;;;-217.30;100.00
50322;BME280;36227;53.366;-1.426;2023-06-24T03:07:23;75542.06;;;-217.30;100.00
50322;BME280;36227;53.366;-1.426;2023-06-24T03:09:48;75576.55;;;-216.83;100.00
50322;BME280;36227;53.366;-1.426;2023-06-24T03:12:13;75585.52;;;-216.83;100.00
50322;BME280;36227;53.366;-1.426;2023-06-24T03:14:38;75517.55;;;-217.30;100.00
50322;BME280;36227;53.366;-1.426;2023-06-24T03:17:04;75546.61;;;-217.07;100.00
50322;BME280;36227;53.366;-1.426;2023-06-24T03:19:29;75572.13;;;-216.83;100.00
50322;BME280;36227;53.366;-1.426;2023-06-24T03:21:54;75606.11;;;-216.83;100.00
50322;BME280;36227;53.366;-1.426;2023-06-24T03:24:19;75546.86;;;-217.78;100.00
50322;BME280;36227;53.366;-1.426;2023-06-24T03:26:44;75555.20;;;-217.54;100.00
50322;BME280;36227;53.366;-1.426;2023-06-24T03:29:09;75591.96;;;-217.30;100.00
50322;BME280;36227;53.366;-1.426;2023-06-24T03:31:35;75599.16;;;-217.07;100.00
50322;BME280;36227;53.366;-1.426;2023-06-24T03:34:00;75588.04;;;-216.83;100.00
50322;BME280;36227;53.366;-1.426;2023-06-24T03:36:25;75562.78;;;-216.83;100.00
50322;BME280;36227;53.366;-1.426;2023-06-24T03:38:50;75581.98;;;-217.07;100.00
50322;BME280;36227;53.366;-1.426;2023-06-24T03:41:15;75577.94;;;-216.83;100.00
50322;BME280;36227;53.366;-1.426;2023-06-24T03:43:40;75597.39;;;-216.83;100.00
50322;BME280;36227;53.366;-1.426;2023-06-24T03:46:06;75600.05;;;-216.83;100.00
50322;BME280;36227;53.366;-1.426;2023-06-24T03:48:30;75586.28;;;-217.30;100.00
50322;BME280;36227;53.366;-1.426;2023-06-24T03:50:55;75598.40;;;-217.07;100.00
50322;BME280;36227;53.366;-1.426;2023-06-24T03:53:20;75601.44;;;-217.07;100.00
50322;BME280;36227;53.366;-1.426;2023-06-24T03:55:46;75619.88;;;-216.83;100.00
50322;BME280;36227;53.366;-1.426;2023-06-24T03:58:11;75626.57;;;-216.83;100.00
50322;BME280;36227;53.366;-1.426;2023-06-24T04:00:36;75532.84;;;-217.54;100.00
50322;BME280;36227;53.366;-1.426;2023-06-24T04:03:01;75490.77;;;-217.54;100.00
50322;BME280;36227;53.366;-1.426;2023-06-24T04:05:26;75424.83;;;-217.78;100.00
50322;BME280;36227;53.366;-1.426;2023-06-24T04:07:51;75430.77;;;-217.78;100.00
50322;BME280;36227;53.366;-1.426;2023-06-24T04:10:17;75456.92;;;-218.02;100.00
50322;BME280;36227;53.366;-1.426;2023-06-24T04:12:41;75486.73;;;-218.26;100.00
50322;BME280;36227;53.366;-1.426;2023-06-24T04:15:07;75522.23;;;-217.54;100.00
50322;BME280;36227;53.366;-1.426;2023-06-24T04:17:31;75539.28;;;-217.30;100.00
50322;BME280;36227;53.366;-1.426;2023-06-24T04:19:57;75519.83;;;-217.30;100.00
50322;BME280;36227;53.366;-1.426;2023-06-24T04:22:21;75549.39;;;-217.07;100.00
50322;BME280;36227;53.366;-1.426;2023-06-24T04:24:47;75559.62;;;-217.07;100.00
50322;BME280;36227;53.366;-1.426;2023-06-24T04:27:12;75572.76;;;-216.83;100.00
50322;BME280;36227;53.366;-1.426;2023-06-24T04:29:37;75561.90;;;-217.30;100.00
50322;BME280;36227;53.366;-1.426;2023-06-24T04:32:03;75576.42;;;-216.83;100.00
50322;BME280;36227;53.366;-1.426;2023-06-24T04:34:27;75554.69;;;-217.78;100.00
50322;BME280;36227;53.366;-1.426;2023-06-24T04:36:54;75551.16;;;-217.30;100.00
50322;BME280;36227;53.366;-1.426;2023-06-24T04:39:17;75476.37;;;-217.78;100.00
50322;BME280;36227;53.366;-1.426;2023-06-24T04:41:42;75495.20;;;-217.30;100.00
50322;BME280;36227;53.366;-1.426;2023-06-24T04:44:08;75485.22;;;-217.78;100.00
50322;BME280;36227;53.366;-1.426;2023-06-24T04:46:32;75477.89;;;-217.30;100.00
50322;BME280;36227;53.366;-1.426;2023-06-24T04:48:58;75520.08;;;-217.30;100.00
50322;BME280;36227;53.366;-1.426;2023-06-24T04:51:23;75502.27;;;-217.30;100.00
50322;BME280;36227;53.366;-1.426;2023-06-24T04:53:48;75516.54;;;-217.54;100.00
50322;BME280;36227;53.366;-1.426;2023-06-24T04:56:13;75571.62;;;-217.30;100.00
50322;BME280;36227;53.366;-1.426;2023-06-24T04:58:39;75555.96;;;-218.02;100.00
50322;BME280;36227;53.366;-1.426;2023-06-24T05:01:03;75551.41;;;-217.54;100.00
50322;BME280;36227;53.366;-1.426;2023-06-24T05:03:29;75503.79;;;-217.30;100.00
50322;BME280;36227;53.366;-1.426;2023-06-24T05:05:54;75499.24;;;-217.30;100.00
50322;BME280;36227;53.366;-1.426;2023-06-24T05:08:19;75562.27;;;-217.07;100.00
50322;BME280;36227;53.366;-1.426;2023-06-24T05:10:44;75595.50;;;-216.83;100.00
50322;BME280;36227;53.366;-1.426;2023-06-24T05:13:09;75578.32;;;-217.07;100.00
50322;BME280;36227;53.366;-1.426;2023-06-24T05:15:34;75522.23;;;-217.30;100.00
50322;BME280;36227;53.366;-1.426;2023-06-24T05:17:59;75570.86;;;-216.83;100.00
50322;BME280;36227;53.366;-1.426;2023-06-24T05:20:25;75543.45;;;-217.78;100.00
50322;BME280;36227;53.366;-1.426;2023-06-24T05:22:49;75501.13;;;-218.02;100.00
50322;BME280;36227;53.366;-1.426;2023-06-24T05:25:15;75499.49;;;-217.54;100.00
50322;BME280;36227;53.366;-1.426;2023-06-24T05:27:40;75468.29;;;-217.30;100.00
50322;BME280;36227;53.366;-1.426;2023-06-24T05:30:06;75513.51;;;-216.83;100.00
50322;BME280;36227;53.366;-1.426;2023-06-24T05:32:32;75497.47;;;-217.30;100.00
50322;BME280;36227;53.366;-1.426;2023-06-24T05:34:56;75486.48;;;-217.30;100.00
50322;BME280;36227;53.366;-1.426;2023-06-24T05:37:22;75523.87;;;-217.07;100.00
50322;BME280;36227;53.366;-1.426;2023-06-24T05:39:46;75507.57;;;-217.30;100.00
50322;BME280;36227;53.366;-1.426;2023-06-24T05:42:11;75500.75;;;-217.30;100.00
50322;BME280;36227;53.366;-1.426;2023-06-24T05:44:36;75520.71;;;-217.78;100.00
50322;BME280;36227;53.366;-1.426;2023-06-24T05:47:01;75477.89;;;-217.78;100.00
50322;BME280;36227;53.366;-1.426;2023-06-24T05:49:26;75503.91;;;-217.30;100.00
50322;BME280;36227;53.366;-1.426;2023-06-24T05:51:51;75483.95;;;-217.78;100.00
50322;BME280;36227;53.366;-1.426;2023-06-24T05:54:16;75437.21;;;-217.78;100.00
50322;BME280;36227;53.366;-1.426;2023-06-24T05:56:41;75435.82;;;-217.54;100.00
50322;BME280;36227;53.366;-1.426;2023-06-24T05:59:06;75437.72;;;-217.30;100.00
50322;BME280;36227;53.366;-1.426;2023-06-24T06:01:31;75417.76;;;-217.30;100.00
50322;BME280;36227;53.366;-1.426;2023-06-24T06:03:56;75389.72;;;-218.02;100.00
50322;BME280;36227;53.366;-1.426;2023-06-24T06:06:22;75419.40;;;-217.78;100.00
50322;BME280;36227;53.366;-1.426;2023-06-24T06:08:47;75419.53;;;-218.26;100.00
50322;BME280;36227;53.366;-1.426;2023-06-24T06:11:11;75438.85;;;-217.78;100.00
50322;BME280;36227;53.366;-1.426;2023-06-24T06:13:36;75443.40;;;-217.78;100.00
50322;BME280;36227;53.366;-1.426;2023-06-24T06:16:02;75459.07;;;-217.54;100.00
50322;BME280;36227;53.366;-1.426;2023-06-24T06:18:27;75436.83;;;-217.78;100.00
50322;BME280;36227;53.366;-1.426;2023-06-24T06:20:52;75464.25;;;-217.54;100.00
50322;BME280;36227;53.366;-1.426;2023-06-24T06:23:18;75455.02;;;-217.78;100.00
50322;BME280;36227;53.366;-1.426;2023-06-24T06:25:44;75482.31;;;-217.07;100.00
50322;BME280;36227;53.366;-1.426;2023-06-24T06:28:11;75498.61;;;-217.07;100.00
50322;BME280;36227;53.366;-1.426;2023-06-24T06:30:35;75484.58;;;-218.02;100.00
50322;BME280;36227;53.366;-1.426;2023-06-24T06:33:04;75447.57;;;-217.78;100.00
50322;BME280;36227;53.366;-1.426;2023-06-24T06:37:57;75419.40;;;-217.78;100.00
50322;BME280;36227;53.366;-1.426;2023-06-24T06:40:17;75434.43;;;-217.78;100.00
50322;BME280;36227;53.366;-1.426;2023-06-24T06:42:48;75384.41;;;-218.02;100.00
50322;BME280;36227;53.366;-1.426;2023-06-24T06:45:13;75434.94;;;-217.78;100.00
50322;BME280;36227;53.366;-1.426;2023-06-24T06:47:41;75420.41;;;-217.78;100.00
50322;BME280;36227;53.366;-1.426;2023-06-24T06:49:59;75329.59;;;-218.26;100.00
50322;BME280;36227;53.366;-1.426;2023-06-24T06:52:22;75381.00;;;-217.78;100.00
50322;BME280;36227;53.366;-1.426;2023-06-24T06:54:47;75391.48;;;-218.26;100.00
50322;BME280;36227;53.366;-1.426;2023-06-24T06:57:12;75460.08;;;-217.78;100.00
50322;BME280;36227;53.366;-1.426;2023-06-24T06:59:37;75429.51;;;-217.78;100.00
50322;BME280;36227;53.366;-1.426;2023-06-24T07:02:02;75327.94;;;-218.26;100.00
50322;BME280;36227;53.366;-1.426;2023-06-24T07:04:28;75321.12;;;-218.26;100.00
50322;BME280;36227;53.366;-1.426;2023-06-24T07:06:52;75270.09;;;-218.26;100.00
50322;BME280;36227;53.366;-1.426;2023-06-24T07:09:18;75378.60;;;-217.78;100.00
50322;BME280;36227;53.366;-1.426;2023-06-24T07:11:42;75388.20;;;-217.78;100.00
50322;BME280;36227;53.366;-1.426;2023-06-24T07:14:07;75348.53;;;-218.02;100.00
50322;BME280;36227;53.366;-1.426;2023-06-24T07:16:33;75354.98;;;-218.02;100.00
50322;BME280;36227;53.366;-1.426;2023-06-24T07:18:59;75259.48;;;-218.98;100.00
50322;BME280;36227;53.366;-1.426;2023-06-24T07:21:24;75267.44;;;-218.74;100.00
50322;BME280;36227;53.366;-1.426;2023-06-24T07:23:48;75314.30;;;-218.26;100.00
50322;BME280;36227;53.366;-1.426;2023-06-24T07:26:13;75363.44;;;-218.02;100.00
50322;BME280;36227;53.366;-1.426;2023-06-24T07:28:38;75352.96;;;-217.78;100.00
50322;BME280;36227;53.366;-1.426;2023-06-24T07:31:04;75359.90;;;-217.78;100.00
50322;BME280;36227;53.366;-1.426;2023-06-24T07:33:28;75348.79;;;-218.02;100.00
50322;BME280;36227;53.366;-1.426;2023-06-24T07:35:53;75360.54;;;-217.78;100.00
50322;BME280;36227;53.366;-1.426;2023-06-24T07:38:18;75371.15;;;-217.78;100.00
50322;BME280;36227;53.366;-1.426;2023-06-24T07:40:58;75279.82;;;-218.98;100.00
50322;BME280;36227;53.366;-1.426;2023-06-24T07:43:08;75351.69;;;-218.26;100.00
50322;BME280;36227;53.366;-1.426;2023-06-24T07:45:33;75316.32;;;-218.26;100.00
50322;BME280;36227;53.366;-1.426;2023-06-24T07:47:58;75364.07;;;-218.02;100.00
50322;BME280;36227;53.366;-1.426;2023-06-24T07:50:23;75360.16;;;-217.78;100.00
50322;BME280;36227;53.366;-1.426;2023-06-24T07:52:48;75339.31;;;-217.78;100.00
50322;BME280;36227;53.366;-1.426;2023-06-24T07:55:13;75302.30;;;-218.26;100.00
50322;BME280;36227;53.366;-1.426;2023-06-24T07:57:38;75328.58;;;-218.02;100.00
50322;BME280;36227;53.366;-1.426;2023-06-24T08:00:06;75346.51;;;-217.78;100.00
50322;BME280;36227;53.366;-1.426;2023-06-24T08:02:29;75346.39;;;-218.02;100.00
50322;BME280;36227;53.366;-1.426;2023-06-24T08:04:54;75331.36;;;-218.26;100.00
50322;BME280;36227;53.366;-1.426;2023-06-24T08:07:19;75340.07;;;-217.78;100.00
50322;BME280;36227;53.366;-1.426;2023-06-24T08:09:44;75374.05;;;-217.78;100.00
50322;BME280;36227;53.366;-1.426;2023-06-24T08:12:10;75345.63;;;-217.78;100.00
50322;BME280;36227;53.366;-1.426;2023-06-24T08:14:34;75337.80;;;-218.02;100.00
50322;BME280;36227;53.366;-1.426;2023-06-24T08:16:59;75345.76;;;-217.78;100.00
50322;BME280;36227;53.366;-1.426;2023-06-24T08:19:24;75292.45;;;-218.02;100.00
50322;BME280;36227;53.366;-1.426;2023-06-24T08:21:50;75261.25;;;-218.02;100.00
50322;BME280;36227;53.366;-1.426;2023-06-24T08:24:15;75243.69;;;-218.26;100.00
50322;BME280;36227;53.366;-1.426;2023-06-24T08:26:40;75212.49;;;-218.98;100.00
50322;BME280;36227;53.366;-1.426;2023-06-24T08:29:05;75219.56;;;-218.74;100.00
50322;BME280;36227;53.366;-1.426;2023-06-24T08:31:30;75235.48;;;-218.26;100.00
50322;BME280;36227;53.366;-1.426;2023-06-24T08:33:56;75219.44;;;-218.74;100.00
50322;BME280;36227;53.366;-1.426;2023-06-24T08:36:21;75255.94;;;-218.02;100.00
50322;BME280;36227;53.366;-1.426;2023-06-24T08:38:46;75221.08;;;-218.50;100.00
50322;BME280;36227;53.366;-1.426;2023-06-24T08:41:10;75279.94;;;-218.02;100.00
50322;BME280;36227;53.366;-1.426;2023-06-24T08:43:35;75239.02;;;-218.26;100.00
50322;BME280;36227;53.366;-1.426;2023-06-24T08:46:00;75203.77;;;-218.26;100.00
50322;BME280;36227;53.366;-1.426;2023-06-24T08:48:27;75240.66;;;-218.26;100.00
50322;BME280;36227;53.366;-1.426;2023-06-24T08:50:52;75251.14;;;-218.74;100.00
50322;BME280;36227;53.366;-1.426;2023-06-24T08:53:16;75248.36;;;-218.26;100.00
50322;BME280;36227;53.366;-1.426;2023-06-24T08:55:43;75233.71;;;-218.26;100.00
50322;BME280;36227;53.366;-1.426;2023-06-24T08:58:06;75165.12;;;-218.74;100.00
50322;BME280;36227;53.366;-1.426;2023-06-24T09:00:31;75122.68;;;-218.74;100.00
50322;BME280;36227;53.366;-1.426;2023-06-24T09:02:56;75161.46;;;-218.74;100.00
50322;BME280;36227;53.366;-1.426;2023-06-24T09:05:21;75159.19;;;-218.50;100.00
50322;BME280;36227;53.366;-1.426;2023-06-24T09:07:46;75161.84;;;-218.26;100.00
50322;BME280;36227;53.366;-1.426;2023-06-24T09:12:36;75081.88;;;-218.26;100.00
50322;BME280;36227;53.366;-1.426;2023-06-24T09:15:03;75105.75;;;-219.22;100.00
50322;BME280;36227;53.366;-1.426;2023-06-24T09:17:26;75183.44;;;-218.74;100.00
50322;BME280;36227;53.366;-1.426;2023-06-24T09:19:51;75149.96;;;-218.74;100.00
50322;BME280;36227;53.366;-1.426;2023-06-24T09:22:17;75157.42;;;-218.50;100.00
50322;BME280;36227;53.366;-1.426;2023-06-24T09:24:53;75069.38;;;-218.74;100.00
50322;BME280;36227;53.366;-1.426;2023-06-24T09:27:07;75060.66;;;-218.98;100.00
50322;BME280;36227;53.366;-1.426;2023-06-24T09:29:34;75006.73;;;-219.22;100.00
50322;BME280;36227;53.366;-1.426;2023-06-24T09:31:57;75027.06;;;-218.74;100.00
50322;BME280;36227;53.366;-1.426;2023-06-24T09:34:23;75066.85;;;-218.74;100.00
50322;BME280;36227;53.366;-1.426;2023-06-24T09:36:52;75043.48;;;-219.22;100.00
50322;BME280;36227;53.366;-1.426;2023-06-24T09:39:12;75019.74;;;-219.70;100.00
50322;BME280;36227;53.366;-1.426;2023-06-24T09:41:40;74962.65;;;-219.46;100.00
50322;BME280;36227;53.366;-1.426;2023-06-24T09:44:03;75004.83;;;-219.22;100.00
50322;BME280;36227;53.366;-1.426;2023-06-24T09:46:28;74824.21;;;-219.93;100.00
50322;BME280;36227;53.366;-1.426;2023-06-24T09:48:52;74954.69;;;-218.98;100.00
50322;BME280;36227;53.366;-1.426;2023-06-24T09:51:18;75057.38;;;-218.74;100.00
50322;BME280;36227;53.366;-1.426;2023-06-24T09:53:43;75069.38;;;-218.74;100.00
50322;BME280;36227;53.366;-1.426;2023-06-24T09:56:10;75045.13;;;-218.74;100.00
50322;BME280;36227;53.366;-1.426;2023-06-24T09:58:36;75070.51;;;-218.74;100.00
50322;BME280;36227;53.366;-1.426;2023-06-24T10:01:02;75044.24;;;-219.22;100.00
50322;BME280;36227;53.366;-1.426;2023-06-24T10:03:24;75060.41;;;-219.22;100.00
50322;BME280;36227;53.366;-1.426;2023-06-24T10:05:50;75062.05;;;-218.74;100.00
50322;BME280;36227;53.366;-1.426;2023-06-24T10:08:14;75054.98;;;-218.74;100.00
50322;BME280;36227;53.366;-1.426;2023-06-24T10:10:39;75017.46;;;-218.98;100.00
50322;BME280;36227;53.366;-1.426;2023-06-24T10:13:04;75015.57;;;-218.74;100.00
50322;BME280;36227;53.366;-1.426;2023-06-24T10:15:29;74997.89;;;-218.98;100.00
50322;BME280;36227;53.366;-1.426;2023-06-24T10:17:54;74937.01;;;-219.22;100.00
50322;BME280;36227;53.366;-1.426;2023-06-24T10:20:25;74915.15;;;-219.46;100.00
50322;BME280;36227;53.366;-1.426;2023-06-24T10:22:46;74892.92;;;-219.70;100.00
50322;BME280;36227;53.366;-1.426;2023-06-24T10:25:11;74905.05;;;-219.93;100.00
50322;BME280;36227;53.366;-1.426;2023-06-24T10:27:39;74992.71;;;-219.22;100.00
50322;BME280;36227;53.366;-1.426;2023-06-24T10:30:03;75006.85;;;-219.22;100.00
50322;BME280;36227;53.366;-1.426;2023-06-24T10:32:24;74931.57;;;-219.22;100.00
50322;BME280;36227;53.366;-1.426;2023-06-24T10:34:54;74944.96;;;-219.22;100.00
50322;BME280;36227;53.366;-1.426;2023-06-24T10:37:18;74942.82;;;-219.22;100.00
50322;BME280;36227;53.366;-1.426;2023-06-24T10:39:46;74899.62;;;-219.22;100.00
50322;BME280;36227;53.366;-1.426;2023-06-24T10:46:55;74838.74;;;-219.70;100.00
50322;BME280;36227;53.366;-1.426;2023-06-24T10:49:21;74861.98;;;-220.17;100.00
50322;BME280;36227;53.366;-1.426;2023-06-24T10:51:45;74931.32;;;-219.70;100.00
50322;BME280;36227;53.366;-1.426;2023-06-24T10:54:10;74748.56;;;-220.17;100.00
50322;BME280;36227;53.366;-1.426;2023-06-24T10:56:35;74746.66;;;-220.17;100.00
50322;BME280;36227;53.366;-1.426;2023-06-24T10:59:00;74836.84;;;-219.70;100.00
50322;BME280;36227;53.366;-1.426;2023-06-24T11:01:25;74819.54;;;-219.93;100.00
50322;BME280;36227;53.366;-1.426;2023-06-24T11:03:50;74831.29;;;-219.70;100.00
50322;BME280;36227;53.366;-1.426;2023-06-24T11:06:15;74855.41;;;-219.22;100.00
50322;BME280;36227;53.366;-1.426;2023-06-24T11:08:44;74860.59;;;-219.22;100.00
50322;BME280;36227;53.366;-1.426;2023-06-24T11:11:06;74860.72;;;-219.46;100.00
50322;BME280;36227;53.366;-1.426;2023-06-24T11:13:33;74883.45;;;-220.17;100.00
50322;BME280;36227;53.366;-1.426;2023-06-24T11:16:00;74878.27;;;-219.70;100.00
50322;BME280;36227;53.366;-1.426;2023-06-24T11:18:20;74885.47;;;-219.70;100.00
50322;BME280;36227;53.366;-1.426;2023-06-24T11:20:45;74916.92;;;-219.22;100.00
50322;BME280;36227;53.366;-1.426;2023-06-24T11:23:11;74948.25;;;-219.22;100.00
50322;BME280;36227;53.366;-1.426;2023-06-24T11:25:39;74989.55;;;-218.98;100.00
50322;BME280;36227;53.366;-1.426;2023-06-24T11:28:01;74968.33;;;-218.98;100.00
50322;BME280;36227;53.366;-1.426;2023-06-24T11:30:27;74951.03;;;-218.98;100.00
50322;BME280;36227;53.366;-1.426;2023-06-24T11:32:53;74941.80;;;-219.22;100.00
50322;BME280;36227;53.366;-1.426;2023-06-24T11:35:18;74942.82;;;-219.70;100.00
50322;BME280;36227;53.366;-1.426;2023-06-24T11:37:45;74919.07;;;-219.46;100.00
50322;BME280;36227;53.366;-1.426;2023-06-24T11:40:10;74924.25;;;-219.22;100.00
50322;BME280;36227;53.366;-1.426;2023-06-24T11:42:37;74866.65;;;-219.46;100.00
50322;BME280;36227;53.366;-1.426;2023-06-24T11:45:01;74858.70;;;-219.46;100.00
50322;BME280;36227;53.366;-1.426;2023-06-24T11:47:25;74890.78;;;-219.22;100.00
50322;BME280;36227;53.366;-1.426;2023-06-24T11:49:52;74819.67;;;-219.46;100.00
50322;BME280;36227;53.366;-1.426;2023-06-24T11:52:17;74763.46;;;-219.70;100.00
50322;BME280;36227;53.366;-1.426;2023-06-24T11:54:42;74853.14;;;-219.22;100.00
50322;BME280;36227;53.366;-1.426;2023-06-24T11:57:08;74822.45;;;-220.17;100.00
50322;BME280;36227;53.366;-1.426;2023-06-24T11:59:33;74863.37;;;-219.70;100.00
50322;BME280;36227;53.366;-1.426;2023-06-24T12:01:59;74740.22;;;-219.93;100.00
50322;BME280;36227;53.366;-1.426;2023-06-24T12:04:28;74697.66;;;-219.93;100.00
50322;BME280;36227;53.366;-1.426;2023-06-24T12:06:50;74690.71;;;-219.93;100.00
50322;BME280;36227;53.366;-1.426;2023-06-24T12:09:15;74740.48;;;-219.70;100.00
50322;BME280;36227;53.366;-1.426;2023-06-24T12:11:40;74742.24;;;-219.93;100.00
50322;BME280;36227;53.366;-1.426;2023-06-24T12:14:06;74763.34;;;-219.70;100.00
50322;BME280;36227;53.366;-1.426;2023-06-24T12:16:31;74749.82;;;-219.70;100.00
50322;BME280;36227;53.366;-1.426;2023-06-24T12:18:57;74752.98;;;-220.17;100.00
50322;BME280;36227;53.366;-1.426;2023-06-24T12:21:27;74708.52;;;-220.41;100.00